createdAt,value
2022-10-20T00:01:19.713Z,14.60
2022-10-20T00:03:47.690Z,14.40
2022-10-20T00:06:20.702Z,14.40
2022-10-20T00:08:48.714Z,14.30
2022-10-20T00:11:18.271Z,14.50
2022-10-20T00:13:47.899Z,14.30
2022-10-20T00:16:16.015Z,14.20
2022-10-20T00:18:43.867Z,14.30
2022-10-20T00:21:16.294Z,14.40
2022-10-20T00:23:43.814Z,14.40
2022-10-20T00:26:14.225Z,14.20
2022-10-20T00:28:42.627Z,14.50
2022-10-20T00:31:11.988Z,14.10
2022-10-20T00:33:40.038Z,14.40
2022-10-20T00:36:09.697Z,14.10
2022-10-20T00:38:37.152Z,14.00
2022-10-20T00:41:04.926Z,14.00
2022-10-20T00:43:50.343Z,14.10
2022-10-20T00:46:21.844Z,14.10
2022-10-20T00:48:54.077Z,14.10
2022-10-20T00:51:26.332Z,14.10
2022-10-20T00:54:08.999Z,14.10
2022-10-20T00:56:40.421Z,14.10
2022-10-20T00:59:13.625Z,14.10
2022-10-20T01:01:43.073Z,14.10
2022-10-20T01:04:11.185Z,14.10
2022-10-20T01:06:40.130Z,14.40
2022-10-20T01:09:08.161Z,14.50
2022-10-20T01:11:43.084Z,14.10
2022-10-20T01:14:37.882Z,14.10
2022-10-20T01:17:35.401Z,14.00
2022-10-20T01:20:25.217Z,14.00
2022-10-20T01:23:12.663Z,14.00
2022-10-20T01:26:25.418Z,14.00
2022-10-20T01:28:59.714Z,13.90
2022-10-20T01:31:34.879Z,14.00
2022-10-20T01:34:31.514Z,13.90
2022-10-20T01:37:07.816Z,13.90
2022-10-20T01:40:00.542Z,14.00
2022-10-20T01:42:29.958Z,14.00
2022-10-20T01:45:01.685Z,13.90
2022-10-20T01:47:31.139Z,14.10
2022-10-20T01:49:58.750Z,13.90
2022-10-20T01:52:28.889Z,13.90
2022-10-20T01:54:56.615Z,13.90
2022-10-20T01:57:45.050Z,13.90
2022-10-20T02:00:15.354Z,13.80
2022-10-20T02:03:15.050Z,13.80
2022-10-20T02:06:07.941Z,13.80
2022-10-20T02:08:44.693Z,13.80
2022-10-20T02:11:25.175Z,13.80
2022-10-20T02:13:55.914Z,13.80
2022-10-20T02:16:33.493Z,13.80
2022-10-20T02:19:02.046Z,13.70
2022-10-20T02:21:29.989Z,13.50
2022-10-20T02:24:03.593Z,13.80
2022-10-20T02:26:37.046Z,13.80
2022-10-20T02:29:13.203Z,13.80
2022-10-20T02:31:41.039Z,14.00
2022-10-20T02:34:08.913Z,14.00
2022-10-20T02:36:39.721Z,13.80
2022-10-20T02:39:11.333Z,13.70
2022-10-20T02:41:38.677Z,13.70
2022-10-20T02:44:05.953Z,13.60
2022-10-20T02:46:33.452Z,13.50
2022-10-20T02:49:01.114Z,13.50
2022-10-20T02:51:28.389Z,13.40
2022-10-20T02:53:55.787Z,13.40
2022-10-20T02:56:25.404Z,13.30
2022-10-20T02:58:54.935Z,13.30
2022-10-20T03:01:22.480Z,13.30
2022-10-20T03:03:50.254Z,13.30
2022-10-20T03:06:17.734Z,13.40
2022-10-20T03:08:45.076Z,13.40
2022-10-20T03:11:12.392Z,13.30
2022-10-20T03:13:39.839Z,13.30
2022-10-20T03:16:07.377Z,13.30
2022-10-20T03:18:34.940Z,13.30
2022-10-20T03:21:02.442Z,13.20
2022-10-20T03:23:29.838Z,13.20
2022-10-20T03:26:05.821Z,13.30
2022-10-20T03:28:33.515Z,13.20
2022-10-20T03:31:00.933Z,13.40
2022-10-20T03:33:29.134Z,13.30
2022-10-20T03:35:56.863Z,13.30
2022-10-20T03:38:24.828Z,13.30
2022-10-20T03:40:57.327Z,13.40
2022-10-20T03:43:24.920Z,13.10
2022-10-20T03:46:05.412Z,13.10
2022-10-20T03:48:33.029Z,13.10
2022-10-20T03:51:05.734Z,13.10
2022-10-20T03:53:33.824Z,13.20
2022-10-20T03:56:09.487Z,13.30
2022-10-20T03:58:37.295Z,13.40
2022-10-20T04:01:06.386Z,13.40
2022-10-20T04:03:33.708Z,13.20
2022-10-20T04:06:01.147Z,13.20
2022-10-20T04:08:31.608Z,13.20
2022-10-20T04:10:59.294Z,13.20
2022-10-20T04:13:26.718Z,13.20
2022-10-20T04:15:55.447Z,13.20
2022-10-20T04:18:22.729Z,13.20
2022-10-20T04:20:50.129Z,13.20
2022-10-20T04:23:17.401Z,13.10
2022-10-20T04:25:48.831Z,13.10
2022-10-20T04:28:19.128Z,13.10
2022-10-20T04:30:47.246Z,13.30
2022-10-20T04:33:14.969Z,13.20
2022-10-20T04:35:42.695Z,13.00
2022-10-20T04:38:10.401Z,13.00
2022-10-20T04:40:37.641Z,13.00
2022-10-20T04:43:04.944Z,13.00
2022-10-20T04:45:32.250Z,13.00
2022-10-20T04:47:59.507Z,13.10
2022-10-20T04:50:26.802Z,13.00
2022-10-20T04:53:07.898Z,13.10
2022-10-20T04:55:35.924Z,13.10
2022-10-20T04:58:06.954Z,13.10
2022-10-20T05:00:34.197Z,13.00
2022-10-20T05:03:01.547Z,13.10
2022-10-20T05:05:29.011Z,13.00
2022-10-20T05:07:56.578Z,13.00
2022-10-20T05:10:23.922Z,13.00
2022-10-20T05:12:51.205Z,13.00
2022-10-20T05:15:18.459Z,13.00
2022-10-20T05:17:45.718Z,13.00
2022-10-20T05:20:13.156Z,12.90
2022-10-20T05:22:40.853Z,13.00
2022-10-20T05:25:31.342Z,13.00
2022-10-20T05:28:00.323Z,13.10
2022-10-20T05:30:27.741Z,13.00
2022-10-20T05:32:54.986Z,13.00
2022-10-20T05:35:22.343Z,13.00
2022-10-20T05:37:49.633Z,13.10
2022-10-20T05:40:25.503Z,13.10
2022-10-20T05:42:54.139Z,13.10
2022-10-20T05:45:22.466Z,13.10
2022-10-20T05:47:49.864Z,13.20
2022-10-20T05:50:17.226Z,13.10
2022-10-20T05:52:44.628Z,13.20
2022-10-20T05:55:12.014Z,13.20
2022-10-20T05:57:39.607Z,13.20
2022-10-20T06:00:07.990Z,13.20
2022-10-20T06:02:39.062Z,13.20
2022-10-20T06:05:06.631Z,13.20
2022-10-20T06:07:34.324Z,13.20
2022-10-20T06:10:02.098Z,13.10
2022-10-20T06:12:30.737Z,13.10
2022-10-20T06:14:58.356Z,13.30
2022-10-20T06:17:27.122Z,13.10
2022-10-20T06:19:54.552Z,13.40
2022-10-20T06:22:22.002Z,13.20
2022-10-20T06:24:49.469Z,13.20
2022-10-20T06:27:16.889Z,13.10
2022-10-20T06:29:44.274Z,13.10
2022-10-20T06:32:12.066Z,13.10
2022-10-20T06:34:39.513Z,13.10
2022-10-20T06:37:09.506Z,13.50
2022-10-20T06:39:36.917Z,13.20
2022-10-20T06:42:09.518Z,13.20
2022-10-20T06:44:45.749Z,13.20
2022-10-20T06:47:13.210Z,13.30
2022-10-20T06:49:40.827Z,13.40
2022-10-20T06:54:36.535Z,13.80
2022-10-20T06:57:04.054Z,13.60
2022-10-20T06:59:32.178Z,13.40
2022-10-20T07:02:05.299Z,13.40
2022-10-20T07:04:32.689Z,13.40
2022-10-20T07:07:02.245Z,13.50
2022-10-20T07:09:29.974Z,13.60
2022-10-20T07:11:57.742Z,13.80
2022-10-20T07:14:25.126Z,13.60
2022-10-20T07:16:52.407Z,13.70
2022-10-20T07:19:19.759Z,13.70
2022-10-20T07:21:47.291Z,13.70
2022-10-20T07:24:16.655Z,13.80
2022-10-20T07:26:44.054Z,13.80
2022-10-20T07:29:14.513Z,13.80
2022-10-20T07:31:47.931Z,13.90
2022-10-20T07:34:25.567Z,13.90
2022-10-20T07:36:55.188Z,14.10
2022-10-20T07:39:23.221Z,14.10
2022-10-20T07:41:52.541Z,14.20
2022-10-20T07:44:20.158Z,14.30
2022-10-20T07:46:47.759Z,14.30
2022-10-20T07:52:02.745Z,14.40
2022-10-20T07:54:30.590Z,14.50
2022-10-20T07:56:57.925Z,14.50
2022-10-20T07:59:25.406Z,14.50
2022-10-20T08:01:56.189Z,14.50
2022-10-20T08:04:24.886Z,14.60
2022-10-20T08:06:52.172Z,14.60
2022-10-20T08:09:19.469Z,14.70
2022-10-20T08:11:47.441Z,14.70
2022-10-20T08:14:16.767Z,14.70
2022-10-20T08:16:45.978Z,14.80
2022-10-20T08:22:01.167Z,15.20
2022-10-20T08:24:28.541Z,15.00
2022-10-20T08:26:56.258Z,15.00
2022-10-20T08:29:23.610Z,15.10
2022-10-20T08:31:55.494Z,15.10
2022-10-20T08:34:23.183Z,15.20
2022-10-20T08:36:50.654Z,15.20
2022-10-20T08:39:18.702Z,15.30
2022-10-20T08:42:06.952Z,15.30
2022-10-20T08:44:37.271Z,15.40
2022-10-20T08:47:14.221Z,15.40
2022-10-20T08:49:43.804Z,15.40
2022-10-20T08:52:16.016Z,15.50
2022-10-20T08:54:43.636Z,15.50
2022-10-20T08:57:34.611Z,15.50
2022-10-20T09:00:24.376Z,15.60
2022-10-20T09:02:52.147Z,15.70
2022-10-20T09:05:26.206Z,15.70
2022-10-20T09:07:54.711Z,15.80
2022-10-20T09:10:33.374Z,15.80
2022-10-20T09:13:02.145Z,15.80
2022-10-20T09:15:29.782Z,15.80
2022-10-20T09:18:03.661Z,15.80
2022-10-20T09:20:36.379Z,15.90
2022-10-20T09:23:07.785Z,16.10
2022-10-20T09:25:46.487Z,16.00
2022-10-20T09:28:26.322Z,16.10
2022-10-20T09:30:57.441Z,16.10
2022-10-20T09:33:30.806Z,16.20
2022-10-20T09:36:13.182Z,16.20
2022-10-20T09:38:47.459Z,16.20
2022-10-20T09:41:21.830Z,16.20
2022-10-20T09:44:02.050Z,16.30
2022-10-20T09:46:43.301Z,16.40
2022-10-20T09:49:28.566Z,16.40
2022-10-20T09:51:57.178Z,16.50
2022-10-20T09:54:25.881Z,16.50
2022-10-20T09:56:54.120Z,16.60
2022-10-20T09:59:34.024Z,16.70
2022-10-20T10:02:16.359Z,16.70
2022-10-20T10:04:48.954Z,16.70
2022-10-20T10:07:22.339Z,16.70
2022-10-20T10:10:05.680Z,16.70
2022-10-20T10:12:36.117Z,16.80
2022-10-20T10:15:06.033Z,16.80
2022-10-20T10:17:36.669Z,16.80
2022-10-20T10:20:30.262Z,16.90
2022-10-20T10:23:27.810Z,16.60
2022-10-20T10:25:59.345Z,16.60
2022-10-20T10:28:39.102Z,16.70
2022-10-20T10:31:24.407Z,16.80
2022-10-20T10:34:22.856Z,16.60
2022-10-20T10:36:50.667Z,16.90
2022-10-20T10:39:18.318Z,16.80
2022-10-20T10:42:09.499Z,16.70
2022-10-20T10:45:07.507Z,16.50
2022-10-20T10:48:18.261Z,16.20
2022-10-20T10:51:01.391Z,16.50
2022-10-20T10:53:45.223Z,16.50
2022-10-20T10:56:25.723Z,16.50
2022-10-20T10:59:05.638Z,16.60
2022-10-20T11:02:04.547Z,16.90
2022-10-20T11:04:53.964Z,16.70
2022-10-20T11:07:32.813Z,16.80
2022-10-20T11:10:16.079Z,16.90
2022-10-20T11:13:15.251Z,16.90
2022-10-20T11:16:05.443Z,17.00
2022-10-20T11:19:11.181Z,17.00
2022-10-20T11:21:46.718Z,17.10
2022-10-20T11:24:29.222Z,17.10
2022-10-20T11:27:23.716Z,17.20
2022-10-20T11:30:15.177Z,17.20
2022-10-20T11:33:05.417Z,17.30
2022-10-20T11:35:58.435Z,17.50
2022-10-20T11:38:44.557Z,17.40
2022-10-20T11:41:22.258Z,17.50
2022-10-20T11:47:10.555Z,17.60
2022-10-20T11:49:39.986Z,17.60
2022-10-20T11:52:35.431Z,17.60
2022-10-20T11:55:05.866Z,17.60
2022-10-20T11:58:01.117Z,17.50
2022-10-20T12:00:52.451Z,17.50
2022-10-20T12:03:54.540Z,17.50
2022-10-20T12:06:55.526Z,17.50
2022-10-20T12:09:41.798Z,17.50
2022-10-20T12:16:12.490Z,17.60
2022-10-20T12:18:39.806Z,17.80
2022-10-20T12:21:10.079Z,17.60
2022-10-20T12:23:46.761Z,17.70
2022-10-20T12:26:35.315Z,17.70
2022-10-20T12:29:31.949Z,18.00
2022-10-20T12:32:34.242Z,17.80
2022-10-20T12:35:23.770Z,17.80
2022-10-20T12:38:04.529Z,18.00
2022-10-20T12:40:41.145Z,17.80
2022-10-20T12:43:33.971Z,17.90
2022-10-20T12:52:20.873Z,17.90
2022-10-20T12:54:55.450Z,18.30
2022-10-20T12:57:41.849Z,17.90
2022-10-20T13:00:22.375Z,17.90
2022-10-20T13:03:33.606Z,17.90
2022-10-20T13:06:05.276Z,17.90
2022-10-20T13:08:35.492Z,17.90
2022-10-20T13:11:37.662Z,17.90
2022-10-20T13:14:45.459Z,18.00
2022-10-20T13:17:25.198Z,18.00
2022-10-20T13:20:02.077Z,18.00
2022-10-20T13:22:46.816Z,18.20
2022-10-20T13:25:31.893Z,18.00
2022-10-20T13:28:13.159Z,18.00
2022-10-20T13:31:23.485Z,18.10
2022-10-20T13:34:24.073Z,18.00
2022-10-20T13:37:11.885Z,18.10
2022-10-20T13:39:51.492Z,18.10
2022-10-20T13:42:37.171Z,18.10
2022-10-20T13:45:30.209Z,18.10
2022-10-20T13:48:34.165Z,18.10
2022-10-20T13:51:27.529Z,18.10
2022-10-20T13:53:58.638Z,18.10
2022-10-20T13:56:59.106Z,18.10
2022-10-20T13:59:29.042Z,18.10
2022-10-20T14:03:12.839Z,18.50
2022-10-20T14:06:31.490Z,17.90
2022-10-20T14:09:16.589Z,18.50
2022-10-20T14:11:55.763Z,18.10
2022-10-20T14:14:25.703Z,18.00
2022-10-20T14:17:02.205Z,18.00
2022-10-20T14:19:30.761Z,18.00
2022-10-20T14:22:12.014Z,18.00
2022-10-20T14:24:44.734Z,18.00
2022-10-20T14:27:33.381Z,18.00
2022-10-20T14:30:16.494Z,18.00
2022-10-20T14:32:45.652Z,18.00
2022-10-20T14:35:31.119Z,18.00
2022-10-20T14:38:06.181Z,18.00
2022-10-20T14:40:36.421Z,18.00
2022-10-20T14:43:07.386Z,18.00
2022-10-20T14:45:35.036Z,18.00
2022-10-20T14:48:02.750Z,18.10
2022-10-20T14:50:37.425Z,17.90
2022-10-20T14:53:25.226Z,17.90
2022-10-20T14:55:53.451Z,18.00
2022-10-20T14:58:35.337Z,18.20
2022-10-20T15:01:32.024Z,18.00
2022-10-20T15:04:13.273Z,18.00
2022-10-20T15:06:41.498Z,18.00
2022-10-20T15:09:28.088Z,17.90
2022-10-20T15:11:57.771Z,17.90
2022-10-20T15:14:25.680Z,18.00
2022-10-20T15:16:53.920Z,18.20
2022-10-20T15:19:35.854Z,18.10
2022-10-20T15:24:40.286Z,18.10
2022-10-20T15:27:15.737Z,18.20
2022-10-20T15:29:51.055Z,17.90
2022-10-20T15:32:18.744Z,18.30
2022-10-20T15:34:46.132Z,17.90
2022-10-20T15:37:13.490Z,17.90
2022-10-20T15:39:40.862Z,18.00
2022-10-20T15:42:11.972Z,17.90
2022-10-20T15:44:39.270Z,17.80
2022-10-20T15:47:08.207Z,17.80
2022-10-20T15:49:36.170Z,17.20
2022-10-20T15:52:03.911Z,17.70
2022-10-20T15:54:31.238Z,17.70
2022-10-20T15:56:58.998Z,17.60
2022-10-20T15:59:26.593Z,17.60
2022-10-20T16:01:54.069Z,17.60
2022-10-20T16:04:26.537Z,17.70
2022-10-20T16:06:58.889Z,17.60
2022-10-20T16:09:27.812Z,17.80
2022-10-20T16:12:21.962Z,17.50
2022-10-20T16:14:49.302Z,17.50
2022-10-20T16:17:18.618Z,17.50
2022-10-20T16:19:45.995Z,17.50
2022-10-20T16:22:13.451Z,17.70
2022-10-20T16:24:41.323Z,17.70
2022-10-20T16:27:08.718Z,17.60
2022-10-20T16:29:36.808Z,17.50
2022-10-20T16:32:04.461Z,17.50
2022-10-20T16:34:32.098Z,17.70
2022-10-20T16:36:59.670Z,17.50
2022-10-20T16:39:28.613Z,17.50
2022-10-20T16:41:55.945Z,17.50
2022-10-20T16:44:23.272Z,17.40
2022-10-20T16:46:51.551Z,17.50
2022-10-20T16:49:19.483Z,17.70
2022-10-20T16:51:47.168Z,17.70
2022-10-20T16:54:14.599Z,17.50
2022-10-20T16:56:41.923Z,17.50
2022-10-20T16:59:09.453Z,17.40
2022-10-20T17:01:40.640Z,17.30
2022-10-20T17:04:08.100Z,17.40
2022-10-20T17:06:35.490Z,17.30
2022-10-20T17:09:03.004Z,17.30
2022-10-20T17:11:34.381Z,17.30
2022-10-20T17:14:01.997Z,17.30
2022-10-20T17:16:33.115Z,17.30
2022-10-20T17:19:02.439Z,17.30
2022-10-20T17:21:31.186Z,17.20
2022-10-20T17:23:59.441Z,17.30
2022-10-20T17:26:32.729Z,17.20
2022-10-20T17:29:01.386Z,17.30
2022-10-20T17:31:30.010Z,17.60
2022-10-20T17:33:58.436Z,17.50
2022-10-20T17:36:26.891Z,17.30
2022-10-20T17:38:59.222Z,17.40
2022-10-20T17:41:30.072Z,17.40
2022-10-20T17:44:00.527Z,17.10
2022-10-20T17:46:28.382Z,17.40
2022-10-20T17:48:56.246Z,17.40
2022-10-20T17:51:28.932Z,17.40
2022-10-20T17:53:59.516Z,17.60
2022-10-20T17:56:31.735Z,17.60
2022-10-20T18:01:41.621Z,17.50
2022-10-20T18:04:14.939Z,17.40
2022-10-20T18:06:45.645Z,17.40
2022-10-20T18:10:04.898Z,17.40
2022-10-20T18:12:39.377Z,17.30
2022-10-20T18:15:08.502Z,17.40
2022-10-20T18:17:39.344Z,17.10
2022-10-20T18:20:07.460Z,17.30
2022-10-20T18:22:35.166Z,17.00
2022-10-20T18:25:05.002Z,17.00
2022-10-20T18:27:33.385Z,17.20
2022-10-20T18:30:00.853Z,17.00
2022-10-20T18:32:29.415Z,17.00
2022-10-20T18:35:00.592Z,16.80
2022-10-20T18:37:28.491Z,17.10
2022-10-20T18:39:59.375Z,17.10
2022-10-20T18:42:29.992Z,17.30
2022-10-20T18:44:57.745Z,17.30
2022-10-20T18:47:25.351Z,17.30
2022-10-20T18:49:52.921Z,17.10
2022-10-20T18:52:28.133Z,17.20
2022-10-20T18:54:55.631Z,17.40
2022-10-20T18:57:27.771Z,17.30
2022-10-20T18:59:55.273Z,17.50
2022-10-20T19:02:22.704Z,17.50
2022-10-20T19:59:26.321Z,17.10
2022-10-20T20:01:56.303Z,17.00
2022-10-20T20:04:23.766Z,17.00
2022-10-20T20:25:09.208Z,16.90
2022-10-20T20:27:37.214Z,16.90
2022-10-20T20:30:11.976Z,17.10
2022-10-20T20:32:48.720Z,16.90
2022-10-20T20:35:22.535Z,16.90
2022-10-20T20:37:50.139Z,17.10
2022-10-20T20:40:20.621Z,16.90
2022-10-20T20:42:48.957Z,17.20
2022-10-20T20:45:21.325Z,17.20
2022-10-20T20:47:49.117Z,17.20
2022-10-20T20:50:16.985Z,17.10
2022-10-20T20:52:44.542Z,17.00
2022-10-20T20:55:12.049Z,17.00
2022-10-20T20:57:40.164Z,17.00
2022-10-20T21:00:08.982Z,17.10
2022-10-20T21:02:45.817Z,17.10
2022-10-20T21:05:14.216Z,17.10
2022-10-20T21:07:43.136Z,17.10
2022-10-20T21:10:10.709Z,17.30
2022-10-20T21:12:38.486Z,17.30
2022-10-20T21:15:06.923Z,17.30
2022-10-20T21:17:34.378Z,17.10
2022-10-20T21:20:01.984Z,17.40
2022-10-20T21:22:29.564Z,17.40
2022-10-20T21:24:57.302Z,17.10
2022-10-20T21:27:24.730Z,17.20
2022-10-20T21:29:52.297Z,17.10
2022-10-20T21:32:20.489Z,17.20
2022-10-20T21:34:48.304Z,17.20
2022-10-20T21:37:16.168Z,17.30
2022-10-20T21:39:43.619Z,17.40
2022-10-20T21:42:11.260Z,17.30
2022-10-20T21:44:38.720Z,17.40
2022-10-20T21:47:06.316Z,17.30
2022-10-20T21:49:33.815Z,17.50
2022-10-20T21:52:01.319Z,17.20
2022-10-20T21:54:29.705Z,17.30
2022-10-20T21:56:58.084Z,17.20
2022-10-20T21:59:27.899Z,17.40
2022-10-20T22:02:01.299Z,17.20
2022-10-20T22:04:30.238Z,17.60
2022-10-20T22:06:59.417Z,17.50
2022-10-20T22:09:27.609Z,17.30
2022-10-20T22:11:58.414Z,17.50
2022-10-20T22:14:25.943Z,17.50
2022-10-20T22:16:55.543Z,17.50
2022-10-20T22:19:24.326Z,17.30
2022-10-20T22:21:53.026Z,17.30
2022-10-20T22:24:21.217Z,17.30
2022-10-20T22:26:51.386Z,17.30
2022-10-20T22:29:20.821Z,17.30
2022-10-20T22:31:48.619Z,17.30
2022-10-20T22:34:16.585Z,17.40
2022-10-20T22:36:44.548Z,17.30
2022-10-20T22:41:40.966Z,17.30
2022-10-20T22:44:09.363Z,17.50
2022-10-20T22:46:42.030Z,17.60
2022-10-20T22:49:11.378Z,17.60
2022-10-20T22:51:39.039Z,17.40
2022-10-20T22:54:08.026Z,17.60
2022-10-20T22:56:35.816Z,17.60
2022-10-20T22:59:03.428Z,17.60
2022-10-20T23:07:27.106Z,17.20
2022-10-20T23:09:54.794Z,17.60
2022-10-20T23:12:22.233Z,17.60
2022-10-20T23:14:49.795Z,17.50
2022-10-20T23:17:20.104Z,17.70
2022-10-20T23:19:55.781Z,17.50
2022-10-20T23:22:25.377Z,17.70
2022-10-20T23:24:53.546Z,17.70
2022-10-20T23:27:24.035Z,17.50
2022-10-20T23:29:51.565Z,17.50
2022-10-20T23:32:18.972Z,17.50
2022-10-20T23:34:46.486Z,17.50
2022-10-20T23:37:23.118Z,17.50
2022-10-20T23:39:53.093Z,17.50
2022-10-20T23:42:26.517Z,17.50
2022-10-20T23:44:54.738Z,17.50
2022-10-20T23:47:25.191Z,17.70
2022-10-20T23:49:58.098Z,17.60
2022-10-20T23:52:26.127Z,17.60
2022-10-20T23:54:53.780Z,17.60
2022-10-20T23:57:21.249Z,17.80
2022-10-20T23:59:49.447Z,17.80
